sensor_id;sensor_type;location;lat;lon;timestamp;pressure;altitude;pressure_sealevel;temperature
24586;BMP280;12743;52.262;6.172;2023-01-15T00:01:36;97964.56;;;6.87
24586;BMP280;12743;52.262;6.172;2023-01-15T00:04:04;97971.31;;;6.91
24586;BMP280;12743;52.262;6.172;2023-01-15T00:06:35;97983.97;;;6.93
24586;BMP280;12743;52.262;6.172;2023-01-15T00:09:03;97988.00;;;6.83
24586;BMP280;12743;52.262;6.172;2023-01-15T00:11:29;97995.06;;;6.75
24586;BMP280;12743;52.262;6.172;2023-01-15T00:13:56;98043.59;;;6.94
24586;BMP280;12743;52.262;6.172;2023-01-15T00:16:24;98049.16;;;6.93
24586;BMP280;12743;52.262;6.172;2023-01-15T00:18:53;98061.47;;;6.92
24586;BMP280;12743;52.262;6.172;2023-01-15T00:21:20;98060.75;;;6.92
24586;BMP280;12743;52.262;6.172;2023-01-15T00:23:47;98061.09;;;6.90
24586;BMP280;12743;52.262;6.172;2023-01-15T00:26:33;98061.06;;;6.87
24586;BMP280;12743;52.262;6.172;2023-01-15T00:29:20;98018.78;;;6.63
24586;BMP280;12743;52.262;6.172;2023-01-15T00:31:59;98055.06;;;6.82
24586;BMP280;12743;52.262;6.172;2023-01-15T00:34:29;98055.44;;;6.81
24586;BMP280;12743;52.262;6.172;2023-01-15T00:36:56;98077.44;;;6.83
24586;BMP280;12743;52.262;6.172;2023-01-15T00:39:23;98075.91;;;6.79
24586;BMP280;12743;52.262;6.172;2023-01-15T00:41:51;98096.38;;;6.77
24586;BMP280;12743;52.262;6.172;2023-01-15T00:44:18;98122.53;;;6.84
24586;BMP280;12743;52.262;6.172;2023-01-15T00:46:44;98107.19;;;6.75
24586;BMP280;12743;52.262;6.172;2023-01-15T00:49:12;98112.44;;;6.82
24586;BMP280;12743;52.262;6.172;2023-01-15T00:51:39;98123.47;;;6.69
24586;BMP280;12743;52.262;6.172;2023-01-15T00:54:06;98123.94;;;6.74
24586;BMP280;12743;52.262;6.172;2023-01-15T00:56:33;98139.19;;;6.76
24586;BMP280;12743;52.262;6.172;2023-01-15T00:59:03;98139.19;;;6.76
24586;BMP280;12743;52.262;6.172;2023-01-15T01:01:31;98128.38;;;6.74
24586;BMP280;12743;52.262;6.172;2023-01-15T01:03:57;98121.66;;;6.73
24586;BMP280;12743;52.262;6.172;2023-01-15T01:06:24;98130.19;;;6.70
24586;BMP280;12743;52.262;6.172;2023-01-15T01:08:50;98115.63;;;6.69
24586;BMP280;12743;52.262;6.172;2023-01-15T01:11:23;98111.88;;;6.66
24586;BMP280;12743;52.262;6.172;2023-01-15T01:13:53;98102.88;;;6.57
24586;BMP280;12743;52.262;6.172;2023-01-15T01:16:29;98122.31;;;6.66
24586;BMP280;12743;52.262;6.172;2023-01-15T01:18:58;98122.31;;;6.66
24586;BMP280;12743;52.262;6.172;2023-01-15T01:21:26;98111.88;;;6.66
24586;BMP280;12743;52.262;6.172;2023-01-15T01:23:53;98108.78;;;6.54
24586;BMP280;12743;52.262;6.172;2023-01-15T01:26:20;98117.84;;;6.63
24586;BMP280;12743;52.262;6.172;2023-01-15T01:28:51;98069.19;;;6.41
24586;BMP280;12743;52.262;6.172;2023-01-15T01:31:17;98112.25;;;6.61
24586;BMP280;12743;52.262;6.172;2023-01-15T01:33:50;98102.09;;;6.53
24586;BMP280;12743;52.262;6.172;2023-01-15T01:36:19;98105.88;;;6.59
24586;BMP280;12743;52.262;6.172;2023-01-15T01:38:47;98099.16;;;6.58
24586;BMP280;12743;52.262;6.172;2023-01-15T01:41:17;98096.16;;;6.52
24586;BMP280;12743;52.262;6.172;2023-01-15T01:43:59;98121.56;;;6.62
24586;BMP280;12743;52.262;6.172;2023-01-15T01:46:29;98127.88;;;6.61
24586;BMP280;12743;52.262;6.172;2023-01-15T01:49:12;98115.19;;;6.60
24586;BMP280;12743;52.262;6.172;2023-01-15T01:51:46;98121.91;;;6.61
24586;BMP280;12743;52.262;6.172;2023-01-15T01:54:17;98117.03;;;6.59
24586;BMP280;12743;52.262;6.172;2023-01-15T01:56:45;98124.13;;;6.59
24586;BMP280;12743;52.262;6.172;2023-01-15T01:59:16;98112.53;;;6.53
24586;BMP280;12743;52.262;6.172;2023-01-15T02:01:43;98104.34;;;6.54
24586;BMP280;12743;52.262;6.172;2023-01-15T02:04:10;98115.50;;;6.55
24586;BMP280;12743;52.262;6.172;2023-01-15T02:06:38;98111.78;;;6.56
24586;BMP280;12743;52.262;6.172;2023-01-15T02:09:06;98108.44;;;6.52
24586;BMP280;12743;52.262;6.172;2023-01-15T02:11:33;98126.31;;;6.57
24586;BMP280;12743;52.262;6.172;2023-01-15T02:14:15;98112.91;;;6.55
24586;BMP280;12743;52.262;6.172;2023-01-15T02:22:24;98122.56;;;6.51
24586;BMP280;12743;52.262;6.172;2023-01-15T02:25:11;98125.56;;;6.53
24586;BMP280;12743;52.262;6.172;2023-01-15T02:27:43;98123.31;;;6.51
24586;BMP280;12743;52.262;6.172;2023-01-15T02:30:17;98143.06;;;6.52
24586;BMP280;12743;52.262;6.172;2023-01-15T02:32:59;98146.72;;;6.48
24586;BMP280;12743;52.262;6.172;2023-01-15T02:35:38;98154.56;;;6.48
24586;BMP280;12743;52.262;6.172;2023-01-15T02:38:13;98104.28;;;6.17
24586;BMP280;12743;52.262;6.172;2023-01-15T02:40:42;98152.66;;;6.45
24586;BMP280;12743;52.262;6.172;2023-01-15T02:43:12;98159.38;;;6.46
24586;BMP280;12743;52.262;6.172;2023-01-15T02:45:41;98144.69;;;6.34
24586;BMP280;12743;52.262;6.172;2023-01-15T02:48:14;98169.03;;;6.45
24586;BMP280;12743;52.262;6.172;2023-01-15T02:50:44;98171.59;;;6.42
24586;BMP280;12743;52.262;6.172;2023-01-15T02:53:26;98173.44;;;6.41
24586;BMP280;12743;52.262;6.172;2023-01-15T02:56:02;98182.75;;;6.39
24586;BMP280;12743;52.262;6.172;2023-01-15T02:58:36;98194.34;;;6.45
24586;BMP280;12743;52.262;6.172;2023-01-15T03:01:11;98183.47;;;6.39
24586;BMP280;12743;52.262;6.172;2023-01-15T03:06:21;98180.03;;;6.32
24586;BMP280;12743;52.262;6.172;2023-01-15T03:08:50;98205.41;;;6.35
24586;BMP280;12743;52.262;6.172;2023-01-15T03:11:18;98182.44;;;6.17
24586;BMP280;12743;52.262;6.172;2023-01-15T03:14:02;98212.47;;;6.34
24586;BMP280;12743;52.262;6.172;2023-01-15T03:16:34;98209.84;;;6.34
24586;BMP280;12743;52.262;6.172;2023-01-15T03:21:46;98191.50;;;6.27
24586;BMP280;12743;52.262;6.172;2023-01-15T03:24:19;98192.66;;;6.30
24586;BMP280;12743;52.262;6.172;2023-01-15T03:26:47;98176.22;;;6.22
24586;BMP280;12743;52.262;6.172;2023-01-15T03:29:14;98164.59;;;6.19
24586;BMP280;12743;52.262;6.172;2023-01-15T03:31:41;98170.19;;;6.18
24586;BMP280;12743;52.262;6.172;2023-01-15T03:34:10;98167.16;;;6.16
24586;BMP280;12743;52.262;6.172;2023-01-15T03:36:41;98175.34;;;6.14
24586;BMP280;12743;52.262;6.172;2023-01-15T03:39:08;98188.41;;;6.18
24586;BMP280;12743;52.262;6.172;2023-01-15T03:48:01;98190.22;;;6.14
24586;BMP280;12743;52.262;6.172;2023-01-15T03:51:00;98197.69;;;6.15
24586;BMP280;12743;52.262;6.172;2023-01-15T03:53:31;98186.50;;;6.11
24586;BMP280;12743;52.262;6.172;2023-01-15T03:56:15;98184.25;;;6.13
24586;BMP280;12743;52.262;6.172;2023-01-15T04:01:36;98188.66;;;6.09
24586;BMP280;12743;52.262;6.172;2023-01-15T04:04:04;98177.84;;;6.07
24586;BMP280;12743;52.262;6.172;2023-01-15T04:06:34;98182.75;;;6.09
24586;BMP280;12743;52.262;6.172;2023-01-15T04:09:05;98171.13;;;6.06
24586;BMP280;12743;52.262;6.172;2023-01-15T04:11:34;98182.75;;;6.09
24586;BMP280;12743;52.262;6.172;2023-01-15T04:14:04;98167.75;;;6.02
24586;BMP280;12743;52.262;6.172;2023-01-15T04:16:39;98173.34;;;6.04
24586;BMP280;12743;52.262;6.172;2023-01-15T04:19:06;98166.84;;;5.91
24586;BMP280;12743;52.262;6.172;2023-01-15T04:21:36;98164.56;;;5.90
24586;BMP280;12743;52.262;6.172;2023-01-15T04:24:03;98180.63;;;5.92
24586;BMP280;12743;52.262;6.172;2023-01-15T04:26:30;98191.91;;;5.99
24586;BMP280;12743;52.262;6.172;2023-01-15T04:28:56;98200.00;;;5.94
24586;BMP280;12743;52.262;6.172;2023-01-15T04:31:23;98201.84;;;5.94
24586;BMP280;12743;52.262;6.172;2023-01-15T04:33:49;98206.78;;;5.99
24586;BMP280;12743;52.262;6.172;2023-01-15T04:36:16;98198.16;;;5.95
24586;BMP280;12743;52.262;6.172;2023-01-15T04:38:43;98209.34;;;5.95
24586;BMP280;12743;52.262;6.172;2023-01-15T04:41:09;98204.06;;;5.92
24586;BMP280;12743;52.262;6.172;2023-01-15T04:43:55;98198.00;;;5.84
24586;BMP280;12743;52.262;6.172;2023-01-15T04:46:41;98197.00;;;5.92
24586;BMP280;12743;52.262;6.172;2023-01-15T04:49:11;98200.69;;;5.91
24586;BMP280;12743;52.262;6.172;2023-01-15T04:51:38;98194.72;;;5.91
24586;BMP280;12743;52.262;6.172;2023-01-15T04:54:06;98199.53;;;5.89
24586;BMP280;12743;52.262;6.172;2023-01-15T04:56:40;98147.34;;;5.55
24586;BMP280;12743;52.262;6.172;2023-01-15T04:59:07;98181.66;;;5.87
24586;BMP280;12743;52.262;6.172;2023-01-15T05:01:34;98181.63;;;5.84
24586;BMP280;12743;52.262;6.172;2023-01-15T05:04:00;98193.59;;;5.88
24586;BMP280;12743;52.262;6.172;2023-01-15T05:06:28;98188.81;;;5.94
24586;BMP280;12743;52.262;6.172;2023-01-15T05:08:57;98183.84;;;5.82
24586;BMP280;12743;52.262;6.172;2023-01-15T05:11:24;98189.91;;;5.93
24586;BMP280;12743;52.262;6.172;2023-01-15T05:13:50;98169.06;;;5.89
24586;BMP280;12743;52.262;6.172;2023-01-15T05:16:23;98160.81;;;5.87
24586;BMP280;12743;52.262;6.172;2023-01-15T05:18:51;98146.28;;;5.86
24586;BMP280;12743;52.262;6.172;2023-01-15T05:21:21;98111.63;;;5.79
24586;BMP280;12743;52.262;6.172;2023-01-15T05:23:52;98075.50;;;5.77
24586;BMP280;12743;52.262;6.172;2023-01-15T05:26:20;98062.81;;;5.72
24586;BMP280;12743;52.262;6.172;2023-01-15T05:28:47;98051.22;;;5.66
24586;BMP280;12743;52.262;6.172;2023-01-15T05:31:17;98046.75;;;5.67
24586;BMP280;12743;52.262;6.172;2023-01-15T05:33:45;98049.72;;;5.65
24586;BMP280;12743;52.262;6.172;2023-01-15T05:36:14;98031.59;;;5.46
24586;BMP280;12743;52.262;6.172;2023-01-15T05:38:41;98046.59;;;5.56
24586;BMP280;12743;52.262;6.172;2023-01-15T05:41:11;98052.69;;;5.67
24586;BMP280;12743;52.262;6.172;2023-01-15T05:43:59;98054.81;;;5.58
24586;BMP280;12743;52.262;6.172;2023-01-15T05:46:26;98050.28;;;5.55
24586;BMP280;12743;52.262;6.172;2023-01-15T05:48:53;98075.44;;;5.70
24586;BMP280;12743;52.262;6.172;2023-01-15T05:51:19;98063.88;;;5.68
24586;BMP280;12743;52.262;6.172;2023-01-15T05:53:46;98068.31;;;5.67
24586;BMP280;12743;52.262;6.172;2023-01-15T05:56:12;98070.09;;;5.63
24586;BMP280;12743;52.262;6.172;2023-01-15T05:58:39;98079.75;;;5.59
24586;BMP280;12743;52.262;6.172;2023-01-15T06:01:07;98101.84;;;5.72
24586;BMP280;12743;52.262;6.172;2023-01-15T06:03:34;98095.34;;;5.59
24586;BMP280;12743;52.262;6.172;2023-01-15T06:06:01;98114.88;;;5.72
24586;BMP280;12743;52.262;6.172;2023-01-15T06:08:28;98133.81;;;5.69
24586;BMP280;12743;52.262;6.172;2023-01-15T06:10:55;98129.31;;;5.66
24586;BMP280;12743;52.262;6.172;2023-01-15T06:13:22;98116.63;;;5.65
24586;BMP280;12743;52.262;6.172;2023-01-15T06:15:48;98106.22;;;5.65
24586;BMP280;12743;52.262;6.172;2023-01-15T06:18:15;98095.75;;;5.61
24586;BMP280;12743;52.262;6.172;2023-01-15T06:20:42;98116.19;;;5.59
24586;BMP280;12743;52.262;6.172;2023-01-15T06:23:08;98139.25;;;5.60
24586;BMP280;12743;52.262;6.172;2023-01-15T06:25:35;98136.63;;;5.60
24586;BMP280;12743;52.262;6.172;2023-01-15T06:28:03;98143.00;;;5.63
24586;BMP280;12743;52.262;6.172;2023-01-15T06:30:30;98146.59;;;5.55
24586;BMP280;12743;52.262;6.172;2023-01-15T06:32:56;98154.47;;;5.58
24586;BMP280;12743;52.262;6.172;2023-01-15T06:35:23;98155.88;;;5.52
24586;BMP280;12743;52.262;6.172;2023-01-15T06:37:50;98157.72;;;5.52
24586;BMP280;12743;52.262;6.172;2023-01-15T06:40:16;98167.78;;;5.53
24586;BMP280;12743;52.262;6.172;2023-01-15T06:42:43;98146.03;;;5.42
24586;BMP280;12743;52.262;6.172;2023-01-15T06:45:32;98164.81;;;5.55
24586;BMP280;12743;52.262;6.172;2023-01-15T06:48:21;98195.75;;;5.60
24586;BMP280;12743;52.262;6.172;2023-01-15T06:50:47;98189.81;;;5.59
24586;BMP280;12743;52.262;6.172;2023-01-15T06:53:14;98171.06;;;5.50
24586;BMP280;12743;52.262;6.172;2023-01-15T06:55:41;98175.50;;;5.50
24586;BMP280;12743;52.262;6.172;2023-01-15T06:58:07;98185.53;;;5.48
24586;BMP280;12743;52.262;6.172;2023-01-15T07:00:34;98249.75;;;5.44
24586;BMP280;12743;52.262;6.172;2023-01-15T07:03:01;98257.06;;;5.35
24586;BMP280;12743;52.262;6.172;2023-01-15T07:05:28;98264.84;;;5.35
24586;BMP280;12743;52.262;6.172;2023-01-15T07:07:56;98253.38;;;5.17
24586;BMP280;12743;52.262;6.172;2023-01-15T07:10:23;98248.59;;;5.19
24586;BMP280;12743;52.262;6.172;2023-01-15T07:12:50;98276.22;;;5.08
24586;BMP280;12743;52.262;6.172;2023-01-15T07:15:16;98300.31;;;5.05
24586;BMP280;12743;52.262;6.172;2023-01-15T07:17:43;98318.81;;;4.99
24586;BMP280;12743;52.262;6.172;2023-01-15T07:20:10;98322.56;;;5.02
24586;BMP280;12743;52.262;6.172;2023-01-15T07:22:36;98301.88;;;4.90
24586;BMP280;12743;52.262;6.172;2023-01-15T07:25:03;98293.81;;;4.95
24586;BMP280;12743;52.262;6.172;2023-01-15T07:27:30;98264.75;;;4.89
24586;BMP280;12743;52.262;6.172;2023-01-15T07:29:56;98241.34;;;4.89
24586;BMP280;12743;52.262;6.172;2023-01-15T07:32:23;98190.00;;;4.67
24586;BMP280;12743;52.262;6.172;2023-01-15T07:34:50;98174.53;;;4.74
24586;BMP280;12743;52.262;6.172;2023-01-15T07:37:16;98167.56;;;4.78
24586;BMP280;12743;52.262;6.172;2023-01-15T07:39:43;98168.19;;;4.72
24586;BMP280;12743;52.262;6.172;2023-01-15T07:42:10;98158.63;;;4.76
24586;BMP280;12743;52.262;6.172;2023-01-15T07:44:55;98162.78;;;4.80
24586;BMP280;12743;52.262;6.172;2023-01-15T07:47:40;98161.28;;;4.79
24586;BMP280;12743;52.262;6.172;2023-01-15T07:50:25;98156.84;;;4.80
24586;BMP280;12743;52.262;6.172;2023-01-15T07:52:52;98156.09;;;4.79
24586;BMP280;12743;52.262;6.172;2023-01-15T07:55:19;98162.06;;;4.80
24586;BMP280;12743;52.262;6.172;2023-01-15T07:57:46;98181.06;;;4.84
24586;BMP280;12743;52.262;6.172;2023-01-15T08:00:19;98194.41;;;4.82
24586;BMP280;12743;52.262;6.172;2023-01-15T08:02:46;98180.66;;;4.82
24586;BMP280;12743;52.262;6.172;2023-01-15T08:05:15;98180.31;;;4.83
24586;BMP280;12743;52.262;6.172;2023-01-15T08:07:43;98166.13;;;4.81
24586;BMP280;12743;52.262;6.172;2023-01-15T08:10:12;98162.78;;;4.80
24586;BMP280;12743;52.262;6.172;2023-01-15T08:12:39;98168.72;;;4.81
24586;BMP280;12743;52.262;6.172;2023-01-15T08:15:25;98136.81;;;4.61
24586;BMP280;12743;52.262;6.172;2023-01-15T08:17:51;98181.47;;;4.86
24586;BMP280;12743;52.262;6.172;2023-01-15T08:20:23;98190.44;;;4.88
24586;BMP280;12743;52.262;6.172;2023-01-15T08:22:51;98185.91;;;4.85
24586;BMP280;12743;52.262;6.172;2023-01-15T08:25:20;98181.25;;;4.75
24586;BMP280;12743;52.262;6.172;2023-01-15T08:27:47;98197.28;;;4.96
24586;BMP280;12743;52.262;6.172;2023-01-15T08:30:17;98217.78;;;5.02
24586;BMP280;12743;52.262;6.172;2023-01-15T08:32:44;98203.88;;;4.94
24586;BMP280;12743;52.262;6.172;2023-01-15T08:35:10;98210.59;;;4.95
24586;BMP280;12743;52.262;6.172;2023-01-15T08:37:39;98189.19;;;5.02
24586;BMP280;12743;52.262;6.172;2023-01-15T08:40:07;98211.50;;;5.03
24586;BMP280;12743;52.262;6.172;2023-01-15T08:42:34;98225.66;;;5.05
24586;BMP280;12743;52.262;6.172;2023-01-15T08:45:01;98224.94;;;5.08
24586;BMP280;12743;52.262;6.172;2023-01-15T08:47:27;98213.53;;;5.13
24586;BMP280;12743;52.262;6.172;2023-01-15T08:49:54;98230.22;;;5.12
24586;BMP280;12743;52.262;6.172;2023-01-15T08:52:20;98256.00;;;5.17
24586;BMP280;12743;52.262;6.172;2023-01-15T08:54:47;98257.47;;;5.18
24586;BMP280;12743;52.262;6.172;2023-01-15T08:57:14;98276.88;;;5.24
24586;BMP280;12743;52.262;6.172;2023-01-15T08:59:40;98257.47;;;5.18
24586;BMP280;12743;52.262;6.172;2023-01-15T09:02:13;98253.91;;;5.26
24586;BMP280;12743;52.262;6.172;2023-01-15T09:04:40;98262.34;;;5.19
24586;BMP280;12743;52.262;6.172;2023-01-15T09:07:06;98299.28;;;5.28
24586;BMP280;12743;52.262;6.172;2023-01-15T09:09:33;98300.69;;;5.22
24586;BMP280;12743;52.262;6.172;2023-01-15T09:12:00;98349.63;;;5.36
24586;BMP280;12743;52.262;6.172;2023-01-15T09:14:26;98337.03;;;5.38
24586;BMP280;12743;52.262;6.172;2023-01-15T09:17:13;98361.25;;;5.42
24586;BMP280;12743;52.262;6.172;2023-01-15T09:19:40;98367.63;;;5.44
24586;BMP280;12743;52.262;6.172;2023-01-15T09:22:06;98372.06;;;5.44
24586;BMP280;12743;52.262;6.172;2023-01-15T09:24:33;98377.69;;;5.46
24586;BMP280;12743;52.262;6.172;2023-01-15T09:26:59;98385.50;;;5.46
24586;BMP280;12743;52.262;6.172;2023-01-15T09:29:26;98377.09;;;5.52
24586;BMP280;12743;52.262;6.172;2023-01-15T09:31:52;98428.59;;;5.63
24586;BMP280;12743;52.262;6.172;2023-01-15T09:34:19;98432.13;;;5.74
24586;BMP280;12743;52.262;6.172;2023-01-15T09:36:46;98425.50;;;5.76
24586;BMP280;12743;52.262;6.172;2023-01-15T09:39:12;98428.44;;;5.75
24586;BMP280;12743;52.262;6.172;2023-01-15T09:47:33;98464.13;;;5.74
24586;BMP280;12743;52.262;6.172;2023-01-15T09:50:17;98448.44;;;5.71
24586;BMP280;12743;52.262;6.172;2023-01-15T09:53:02;98477.59;;;5.76
24586;BMP280;12743;52.262;6.172;2023-01-15T09:55:32;98476.06;;;5.75
24586;BMP280;12743;52.262;6.172;2023-01-15T09:58:02;98467.91;;;5.77
24586;BMP280;12743;52.262;6.172;2023-01-15T10:00:49;98483.19;;;5.78
24586;BMP280;12743;52.262;6.172;2023-01-15T10:06:04;98526.91;;;5.88
24586;BMP280;12743;52.262;6.172;2023-01-15T10:08:38;98518.41;;;5.91
24586;BMP280;12743;52.262;6.172;2023-01-15T10:14:05;98511.84;;;5.97
24586;BMP280;12743;52.262;6.172;2023-01-15T10:16:34;98521.56;;;6.00
24586;BMP280;12743;52.262;6.172;2023-01-15T10:19:01;98528.25;;;5.98
24586;BMP280;12743;52.262;6.172;2023-01-15T10:21:55;98537.34;;;6.07
24586;BMP280;12743;52.262;6.172;2023-01-15T10:24:37;98551.88;;;6.08
24586;BMP280;12743;52.262;6.172;2023-01-15T10:27:13;98567.22;;;6.13
24586;BMP280;12743;52.262;6.172;2023-01-15T10:29:44;98545.44;;;6.22
24586;BMP280;12743;52.262;6.172;2023-01-15T10:35:14;98590.25;;;6.50
24586;BMP280;12743;52.262;6.172;2023-01-15T10:37:49;98589.22;;;6.54
24586;BMP280;12743;52.262;6.172;2023-01-15T10:43:04;98575.06;;;6.52
24586;BMP280;12743;52.262;6.172;2023-01-15T10:45:39;98572.59;;;6.40
24586;BMP280;12743;52.262;6.172;2023-01-15T10:50:34;98581.38;;;6.73
24586;BMP280;12743;52.262;6.172;2023-01-15T10:53:12;98601.47;;;6.73
24586;BMP280;12743;52.262;6.172;2023-01-15T10:55:44;98546.53;;;6.62
24586;BMP280;12743;52.262;6.172;2023-01-15T10:58:38;98564.50;;;6.67
24586;BMP280;12743;52.262;6.172;2023-01-15T11:01:13;98555.53;;;6.65
24586;BMP280;12743;52.262;6.172;2023-01-15T11:03:42;98544.78;;;6.70
24586;BMP280;12743;52.262;6.172;2023-01-15T11:06:18;98561.66;;;6.76
24586;BMP280;12743;52.262;6.172;2023-01-15T11:11:43;98572.41;;;6.71
24586;BMP280;12743;52.262;6.172;2023-01-15T11:14:57;98583.59;;;6.71
24586;BMP280;12743;52.262;6.172;2023-01-15T11:17:43;98588.50;;;6.76
24586;BMP280;12743;52.262;6.172;2023-01-15T11:23:09;98631.19;;;6.88
24586;BMP280;12743;52.262;6.172;2023-01-15T11:25:37;98594.69;;;6.88
24586;BMP280;12743;52.262;6.172;2023-01-15T11:28:05;98611.84;;;6.89
24586;BMP280;12743;52.262;6.172;2023-01-15T11:30:36;98603.69;;;6.71
24586;BMP280;12743;52.262;6.172;2023-01-15T11:33:05;98645.00;;;6.88
24586;BMP280;12743;52.262;6.172;2023-01-15T11:35:33;98616.19;;;7.04
24586;BMP280;12743;52.262;6.172;2023-01-15T11:38:12;98633.75;;;7.07
24586;BMP280;12743;52.262;6.172;2023-01-15T11:40:38;98657.94;;;7.04
24586;BMP280;12743;52.262;6.172;2023-01-15T11:43:19;98707.16;;;7.05
24586;BMP280;12743;52.262;6.172;2023-01-15T11:46:05;98726.22;;;7.09
24586;BMP280;12743;52.262;6.172;2023-01-15T11:48:50;98713.06;;;7.02
24586;BMP280;12743;52.262;6.172;2023-01-15T11:51:41;98712.69;;;7.23
24586;BMP280;12743;52.262;6.172;2023-01-15T11:54:12;98744.47;;;7.28
24586;BMP280;12743;52.262;6.172;2023-01-15T11:56:42;98721.53;;;7.37
24586;BMP280;12743;52.262;6.172;2023-01-15T11:59:12;98719.53;;;7.31
24586;BMP280;12743;52.262;6.172;2023-01-15T12:01:58;98685.75;;;7.19
24586;BMP280;12743;52.262;6.172;2023-01-15T12:04:38;98682.13;;;7.23
24586;BMP280;12743;52.262;6.172;2023-01-15T12:07:12;98678.66;;;7.16
24586;BMP280;12743;52.262;6.172;2023-01-15T12:10:05;98649.06;;;7.08
24586;BMP280;12743;52.262;6.172;2023-01-15T12:15:42;98592.25;;;6.98
24586;BMP280;12743;52.262;6.172;2023-01-15T12:21:30;98571.94;;;6.88
24586;BMP280;12743;52.262;6.172;2023-01-15T12:27:06;98536.38;;;6.80
24586;BMP280;12743;52.262;6.172;2023-01-15T12:29:44;98538.13;;;6.72
24586;BMP280;12743;52.262;6.172;2023-01-15T12:32:21;98494.34;;;6.59
24586;BMP280;12743;52.262;6.172;2023-01-15T12:35:02;98493.28;;;6.63
24586;BMP280;12743;52.262;6.172;2023-01-15T12:37:37;98430.16;;;6.51
24586;BMP280;12743;52.262;6.172;2023-01-15T12:42:45;98412.53;;;6.44
24586;BMP280;12743;52.262;6.172;2023-01-15T12:45:35;98401.47;;;6.51
24586;BMP280;12743;52.262;6.172;2023-01-15T12:48:25;98395.81;;;6.45
24586;BMP280;12743;52.262;6.172;2023-01-15T12:50:57;98388.75;;;6.46
24586;BMP280;12743;52.262;6.172;2023-01-15T12:53:40;98305.94;;;6.36
24586;BMP280;12743;52.262;6.172;2023-01-15T12:58:46;98217.22;;;6.29
24586;BMP280;12743;52.262;6.172;2023-01-15T13:01:30;98178.91;;;6.03
24586;BMP280;12743;52.262;6.172;2023-01-15T13:04:14;98116.97;;;5.89
24586;BMP280;12743;52.262;6.172;2023-01-15T13:06:49;98089.72;;;5.83
24586;BMP280;12743;52.262;6.172;2023-01-15T13:09:33;98066.56;;;5.75
24586;BMP280;12743;52.262;6.172;2023-01-15T13:12:01;98056.47;;;5.70
24586;BMP280;12743;52.262;6.172;2023-01-15T13:14:27;98033.97;;;5.58
24586;BMP280;12743;52.262;6.172;2023-01-15T13:22:31;98019.47;;;5.57
24586;BMP280;12743;52.262;6.172;2023-01-15T13:31:01;98036.00;;;5.42
24586;BMP280;12743;52.262;6.172;2023-01-15T13:33:40;98020.06;;;5.47
24586;BMP280;12743;52.262;6.172;2023-01-15T13:38:44;98010.84;;;5.49
24586;BMP280;12743;52.262;6.172;2023-01-15T13:41:18;98021.78;;;5.62
24586;BMP280;12743;52.262;6.172;2023-01-15T13:44:15;98045.31;;;5.69
24586;BMP280;12743;52.262;6.172;2023-01-15T13:46:43;98040.19;;;5.76
24586;BMP280;12743;52.262;6.172;2023-01-15T13:49:17;98037.59;;;5.80
24586;BMP280;12743;52.262;6.172;2023-01-15T13:51:47;98047.00;;;5.88
24586;BMP280;12743;52.262;6.172;2023-01-15T13:54:17;98066.09;;;5.95
24586;BMP280;12743;52.262;6.172;2023-01-15T13:56:44;98059.38;;;5.94
24586;BMP280;12743;52.262;6.172;2023-01-15T13:59:33;98073.38;;;5.86
24586;BMP280;12743;52.262;6.172;2023-01-15T14:02:01;98080.84;;;5.88
24586;BMP280;12743;52.262;6.172;2023-01-15T14:04:36;98050.88;;;5.71
24586;BMP280;12743;52.262;6.172;2023-01-15T14:07:03;98112.91;;;5.92
24586;BMP280;12743;52.262;6.172;2023-01-15T14:09:32;98117.06;;;5.96
24586;BMP280;12743;52.262;6.172;2023-01-15T14:15:00;98134.63;;;5.99
24586;BMP280;12743;52.262;6.172;2023-01-15T14:17:51;98140.91;;;5.98
24586;BMP280;12743;52.262;6.172;2023-01-15T14:34:16;98168.31;;;5.89
24586;BMP280;12743;52.262;6.172;2023-01-15T14:36:53;98156.34;;;5.84
24586;BMP280;12743;52.262;6.172;2023-01-15T14:42:04;98150.75;;;5.82
24586;BMP280;12743;52.262;6.172;2023-01-15T14:47:50;98142.31;;;5.92
24586;BMP280;12743;52.262;6.172;2023-01-15T14:50:23;98139.34;;;5.94
24586;BMP280;12743;52.262;6.172;2023-01-15T14:52:51;98128.59;;;5.95
24586;BMP280;12743;52.262;6.172;2023-01-15T14:55:19;98143.56;;;6.02
24586;BMP280;12743;52.262;6.172;2023-01-15T14:58:03;98145.44;;;6.05
24586;BMP280;12743;52.262;6.172;2023-01-15T15:00:39;98147.00;;;6.09
24586;BMP280;12743;52.262;6.172;2023-01-15T15:03:13;98157.38;;;6.06
24586;BMP280;12743;52.262;6.172;2023-01-15T15:05:42;98121.88;;;5.94
24586;BMP280;12743;52.262;6.172;2023-01-15T15:08:12;98171.88;;;6.07
24586;BMP280;12743;52.262;6.172;2023-01-15T15:10:42;98186.72;;;5.99
24586;BMP280;12743;52.262;6.172;2023-01-15T15:13:30;98181.38;;;5.92
24586;BMP280;12743;52.262;6.172;2023-01-15T15:16:16;98145.19;;;5.87
24586;BMP280;12743;52.262;6.172;2023-01-15T15:18:59;98131.09;;;5.88
24586;BMP280;12743;52.262;6.172;2023-01-15T15:21:31;98113.94;;;5.87
24586;BMP280;12743;52.262;6.172;2023-01-15T15:24:29;98116.28;;;5.92
24586;BMP280;12743;52.262;6.172;2023-01-15T15:27:09;98141.19;;;5.93
24586;BMP280;12743;52.262;6.172;2023-01-15T15:29:39;98173.22;;;5.94
24586;BMP280;12743;52.262;6.172;2023-01-15T15:32:10;98167.59;;;5.92
24586;BMP280;12743;52.262;6.172;2023-01-15T15:34:40;98187.59;;;5.84
24586;BMP280;12743;52.262;6.172;2023-01-15T15:37:15;98191.63;;;5.82
24586;BMP280;12743;52.262;6.172;2023-01-15T15:42:22;98176.34;;;5.80
24586;BMP280;12743;52.262;6.172;2023-01-15T15:45:26;98188.69;;;5.83
24586;BMP280;12743;52.262;6.172;2023-01-15T15:48:17;98171.84;;;5.77
24586;BMP280;12743;52.262;6.172;2023-01-15T15:51:03;98158.66;;;5.67
24586;BMP280;12743;52.262;6.172;2023-01-15T15:53:30;98176.03;;;5.82
24586;BMP280;12743;52.262;6.172;2023-01-15T15:55:58;98166.31;;;5.79
24586;BMP280;12743;52.262;6.172;2023-01-15T15:58:28;98185.06;;;5.91
24586;BMP280;12743;52.262;6.172;2023-01-15T16:00:56;98203.91;;;5.81
24586;BMP280;12743;52.262;6.172;2023-01-15T16:03:26;98211.06;;;5.88
24586;BMP280;12743;52.262;6.172;2023-01-15T16:05:58;98246.47;;;5.92
24586;BMP280;12743;52.262;6.172;2023-01-15T16:08:26;98260.94;;;5.90
24586;BMP280;12743;52.262;6.172;2023-01-15T16:10:54;98255.66;;;5.86
24586;BMP280;12743;52.262;6.172;2023-01-15T16:13:35;98239.66;;;5.84
24586;BMP280;12743;52.262;6.172;2023-01-15T16:16:04;98218.84;;;5.84
24586;BMP280;12743;52.262;6.172;2023-01-15T16:18:38;98198.16;;;5.69
24586;BMP280;12743;52.262;6.172;2023-01-15T16:21:15;98209.88;;;5.82
24586;BMP280;12743;52.262;6.172;2023-01-15T16:23:57;98199.78;;;5.80
24586;BMP280;12743;52.262;6.172;2023-01-15T16:26:32;98197.19;;;5.80
24586;BMP280;12743;52.262;6.172;2023-01-15T16:29:03;98227.78;;;5.87